createdAt,value
2019-03-23T00:00:24.858Z,100431.62
2019-03-23T00:03:26.418Z,100435.13
2019-03-23T00:06:30.187Z,100433.43
2019-03-23T00:09:35.071Z,100431.29
2019-03-23T00:12:21.041Z,100433.19
2019-03-23T00:15:22.312Z,100433.06
2019-03-23T00:18:21.304Z,100431.78
2019-03-23T00:21:11.750Z,100432.49
2019-03-23T00:23:56.297Z,100434.34
2019-03-23T00:26:41.336Z,100429.86
2019-03-23T00:29:32.756Z,100435.92
2019-03-23T00:32:42.751Z,100436.72
2019-03-23T00:35:23.686Z,100435.29
2019-03-23T00:38:11.974Z,100433.92
2019-03-23T00:41:10.110Z,100433.43
2019-03-23T00:43:59.735Z,100430.70
2019-03-23T00:46:52.540Z,100427.23
2019-03-23T00:49:43.962Z,100432.27
2019-03-23T00:52:42.532Z,100435.83
2019-03-23T00:55:27.170Z,100434.38
2019-03-23T00:58:14.944Z,100439.47
2019-03-23T01:01:18.509Z,100439.81
2019-03-23T01:04:20.379Z,100440.74
2019-03-23T01:07:03.300Z,100440.27
2019-03-23T01:09:48.270Z,100435.34
2019-03-23T01:12:30.885Z,100437.63
2019-03-23T01:15:20.189Z,100434.36
2019-03-23T01:18:17.586Z,100433.86
2019-03-23T01:21:07.944Z,100432.41
2019-03-23T01:23:51.864Z,100430.73
2019-03-23T01:26:48.591Z,100428.20
2019-03-23T01:29:32.558Z,100431.11
2019-03-23T01:32:28.979Z,100431.67
2019-03-23T01:35:19.499Z,100436.36
2019-03-23T01:38:10.615Z,100426.48
2019-03-23T01:41:09.799Z,100427.42
2019-03-23T01:44:02.684Z,100427.97
2019-03-23T01:46:47.339Z,100428.74
2019-03-23T01:49:31.271Z,100426.05
2019-03-23T01:52:18.099Z,100420.52
2019-03-23T01:55:10.631Z,100423.41
2019-03-23T01:58:00.227Z,100422.75
2019-03-23T02:00:47.026Z,100413.21
2019-03-23T02:03:42.227Z,100413.20
2019-03-23T02:06:39.336Z,100419.63
2019-03-23T02:09:27.709Z,100418.34
2019-03-23T02:12:30.004Z,100423.98
2019-03-23T02:15:24.190Z,100417.73
2019-03-23T02:18:15.917Z,100418.11
2019-03-23T02:21:04.887Z,100418.58
2019-03-23T02:24:09.736Z,100422.98
2019-03-23T02:27:02.795Z,100420.85
2019-03-23T02:29:49.606Z,100421.06
2019-03-23T02:32:43.791Z,100415.55
2019-03-23T02:38:48.649Z,100418.02
2019-03-23T02:41:39.303Z,100416.33
2019-03-23T02:44:26.777Z,100414.30
2019-03-23T02:47:12.194Z,100411.69
2019-03-23T02:50:00.544Z,100411.41
2019-03-23T02:52:43.471Z,100411.41
2019-03-23T02:55:35.458Z,100411.78
2019-03-23T02:58:18.632Z,100413.98
2019-03-23T03:01:05.608Z,100413.21
2019-03-23T03:04:09.414Z,100409.75
2019-03-23T03:07:04.370Z,100417.13
2019-03-23T03:09:51.536Z,100412.59
2019-03-23T03:12:41.935Z,100414.96
2019-03-23T03:15:31.061Z,100415.02
2019-03-23T03:18:26.107Z,100415.78
2019-03-23T03:21:12.162Z,100416.25
2019-03-23T03:23:55.837Z,100414.38
2019-03-23T03:26:43.235Z,100413.03
2019-03-23T03:29:32.808Z,100412.70
2019-03-23T03:32:33.110Z,100407.19
2019-03-23T03:35:18.839Z,100409.08
2019-03-23T03:38:05.563Z,100413.32
2019-03-23T03:40:46.518Z,100415.46
2019-03-23T03:43:39.353Z,100412.59
2019-03-23T03:46:28.030Z,100412.06
2019-03-23T03:49:12.571Z,100409.98
2019-03-23T03:51:50.695Z,100411.05
2019-03-23T03:54:45.301Z,100404.52
2019-03-23T03:57:28.322Z,100403.08
2019-03-23T04:00:13.807Z,100408.80
2019-03-23T04:03:09.229Z,100404.04
2019-03-23T04:05:50.598Z,100416.77
2019-03-23T04:08:43.443Z,100420.17
2019-03-23T04:11:41.034Z,100422.77
2019-03-23T04:14:29.464Z,100426.94
2019-03-23T04:17:16.512Z,100428.64
2019-03-23T04:20:17.831Z,100425.41
2019-03-23T04:23:06.908Z,100420.81
2019-03-23T04:26:04.075Z,100422.78
2019-03-23T04:28:49.139Z,100424.44
2019-03-23T04:31:35.131Z,100422.45
2019-03-23T04:34:24.710Z,100422.67
2019-03-23T04:37:23.586Z,100426.03
2019-03-23T04:40:27.133Z,100428.27
2019-03-23T04:43:11.977Z,100427.71
2019-03-23T04:45:58.584Z,100432.28
2019-03-23T04:48:47.472Z,100426.99
2019-03-23T04:51:32.516Z,100426.45
2019-03-23T04:54:19.019Z,100430.67
2019-03-23T04:57:05.934Z,100434.39
2019-03-23T04:59:52.132Z,100433.44
2019-03-23T05:02:40.685Z,100434.27
2019-03-23T05:05:29.690Z,100434.55
2019-03-23T05:08:17.937Z,100443.69
2019-03-23T05:11:01.327Z,100442.55
2019-03-23T05:14:01.554Z,100441.48
2019-03-23T05:16:38.228Z,100439.31
2019-03-23T05:19:29.806Z,100438.52
2019-03-23T05:22:26.391Z,100438.53
2019-03-23T05:25:25.862Z,100444.37
2019-03-23T05:28:15.025Z,100443.45
2019-03-23T05:31:11.364Z,100444.68
2019-03-23T05:34:04.155Z,100439.58
2019-03-23T05:36:54.591Z,100444.42
2019-03-23T05:39:51.774Z,100451.22
2019-03-23T05:42:42.481Z,100437.69
2019-03-23T05:45:41.787Z,100449.30
2019-03-23T05:48:27.093Z,100448.40
2019-03-23T05:51:17.464Z,100449.83
2019-03-23T05:53:59.651Z,100452.70
2019-03-23T05:56:58.772Z,100453.37
2019-03-23T05:59:43.029Z,100457.27
2019-03-23T06:02:33.547Z,100463.98
2019-03-23T06:05:28.732Z,100467.08
2019-03-23T06:08:15.443Z,100467.59
2019-03-23T06:11:12.597Z,100464.18
2019-03-23T06:14:05.467Z,100468.09
2019-03-23T06:16:52.790Z,100468.87
2019-03-23T06:19:39.814Z,100471.51
2019-03-23T06:22:32.133Z,100467.98
2019-03-23T06:25:34.094Z,100463.98
2019-03-23T06:28:40.372Z,100463.15
2019-03-23T06:31:24.117Z,100463.09
2019-03-23T06:34:06.829Z,100464.96
2019-03-23T06:36:55.811Z,100464.36
2019-03-23T06:39:45.488Z,100472.93
2019-03-23T06:42:40.985Z,100476.78
2019-03-23T06:45:23.598Z,100472.73
2019-03-23T06:48:16.043Z,100477.36
2019-03-23T06:50:54.682Z,100476.92
2019-03-23T06:53:42.497Z,100475.50
2019-03-23T06:56:52.474Z,100478.77
2019-03-23T06:59:45.249Z,100486.35
2019-03-23T07:02:32.372Z,100480.80
2019-03-23T07:05:17.854Z,100485.45
2019-03-23T07:08:08.323Z,100481.64
2019-03-23T07:10:59.753Z,100488.48
2019-03-23T07:13:49.663Z,100485.95
2019-03-23T07:16:29.519Z,100486.06
2019-03-23T07:19:19.565Z,100489.28
2019-03-23T07:22:10.413Z,100486.10
2019-03-23T07:25:04.811Z,100490.20
2019-03-23T07:27:49.728Z,100489.83
2019-03-23T07:30:37.563Z,100494.58
2019-03-23T07:33:24.428Z,100497.00
2019-03-23T07:36:14.360Z,100498.64
2019-03-23T07:38:56.465Z,100506.14
2019-03-23T07:41:44.301Z,100502.09
2019-03-23T07:44:31.321Z,100498.41
2019-03-23T07:47:18.909Z,100499.39
2019-03-23T07:50:10.542Z,100499.99
2019-03-23T07:53:00.560Z,100503.03
2019-03-23T07:55:42.414Z,100503.60
2019-03-23T07:58:34.419Z,100500.03
2019-03-23T08:01:32.436Z,100498.45
2019-03-23T08:04:18.929Z,100500.55
2019-03-23T08:07:09.546Z,100496.95
2019-03-23T08:10:07.623Z,100494.22
2019-03-23T08:12:55.238Z,100493.66
2019-03-23T08:15:44.119Z,100496.27
2019-03-23T08:18:33.798Z,100501.83
2019-03-23T08:21:33.390Z,100500.28
2019-03-23T08:24:50.062Z,100503.19
2019-03-23T08:27:41.635Z,100504.03
2019-03-23T08:30:33.235Z,100503.43
2019-03-23T08:33:14.759Z,100500.55
2019-03-23T08:36:08.553Z,100501.60
2019-03-23T08:39:01.360Z,100503.06
2019-03-23T08:42:05.712Z,100507.25
2019-03-23T08:45:03.179Z,100508.37
2019-03-23T08:47:47.248Z,100505.36
2019-03-23T08:50:36.080Z,100506.67
2019-03-23T08:56:40.047Z,100498.25
2019-03-23T08:59:26.329Z,100497.09
2019-03-23T09:02:15.929Z,100500.60
2019-03-23T09:05:06.024Z,100498.90
2019-03-23T09:07:52.632Z,100496.55
2019-03-23T09:10:41.574Z,100498.03
2019-03-23T09:13:49.505Z,100496.80
2019-03-23T09:16:26.179Z,100494.52
2019-03-23T09:19:22.210Z,100496.68
2019-03-23T09:22:14.971Z,100494.70
2019-03-23T09:25:00.287Z,100502.80
2019-03-23T09:27:47.123Z,100500.03
2019-03-23T09:30:40.488Z,100500.06
2019-03-23T09:33:29.594Z,100500.05
2019-03-23T09:36:23.372Z,100499.42
2019-03-23T09:39:11.983Z,100498.22
2019-03-23T09:42:02.324Z,100490.33
2019-03-23T09:44:51.800Z,100487.81
2019-03-23T09:47:36.362Z,100486.42
2019-03-23T09:50:17.648Z,100491.56
2019-03-23T09:53:03.482Z,100486.75
2019-03-23T09:56:00.682Z,100486.09
2019-03-23T09:59:08.647Z,100481.41
2019-03-23T10:01:48.194Z,100479.08
2019-03-23T10:04:37.351Z,100475.34
2019-03-23T10:07:29.700Z,100473.19
2019-03-23T10:10:23.893Z,100474.17
2019-03-23T10:13:07.622Z,100469.47
2019-03-23T10:15:58.838Z,100469.42
2019-03-23T10:19:07.164Z,100466.63
2019-03-23T10:21:55.784Z,100470.95
2019-03-23T10:24:39.937Z,100471.98
2019-03-23T10:27:37.617Z,100477.20
2019-03-23T10:30:39.659Z,100469.22
2019-03-23T10:33:25.977Z,100460.20
2019-03-23T10:36:15.758Z,100465.31
2019-03-23T10:39:02.989Z,100461.42
2019-03-23T10:41:49.689Z,100454.50
2019-03-23T10:44:43.773Z,100461.63
2019-03-23T10:47:34.826Z,100463.86
2019-03-23T10:50:22.124Z,100458.53
2019-03-23T10:53:22.808Z,100461.95
2019-03-23T10:56:04.764Z,100458.27
2019-03-23T10:58:52.196Z,100459.59
2019-03-23T11:02:07.578Z,100453.09
2019-03-23T11:05:11.873Z,100451.48
2019-03-23T11:08:16.307Z,100447.11
2019-03-23T11:11:09.581Z,100446.84
2019-03-23T11:13:56.599Z,100445.94
2019-03-23T11:16:44.759Z,100443.83
2019-03-23T11:20:00.962Z,100446.17
2019-03-23T11:22:50.521Z,100444.88
2019-03-23T11:25:43.988Z,100445.41
2019-03-23T11:28:32.952Z,100448.14
2019-03-23T11:31:17.819Z,100443.52
2019-03-23T11:34:18.299Z,100444.42
2019-03-23T11:37:15.058Z,100446.69
2019-03-23T11:39:53.852Z,100445.28
2019-03-23T11:43:00.086Z,100442.66
2019-03-23T11:45:46.079Z,100443.41
2019-03-23T11:48:37.090Z,100443.26
2019-03-23T11:51:24.866Z,100442.28
2019-03-23T11:54:15.220Z,100442.06
2019-03-23T11:57:09.712Z,100440.31
2019-03-23T11:59:59.425Z,100448.88
2019-03-23T12:02:52.143Z,100451.53
2019-03-23T12:05:35.630Z,100449.13
2019-03-23T12:08:30.068Z,100448.80
2019-03-23T12:11:16.222Z,100443.53
2019-03-23T12:14:08.359Z,100442.05
2019-03-23T12:16:53.842Z,100439.23
2019-03-23T12:19:50.794Z,100438.44
2019-03-23T12:22:41.947Z,100437.87
2019-03-23T12:25:31.525Z,100439.80
2019-03-23T12:28:18.609Z,100431.94
2019-03-23T12:31:10.751Z,100426.58
2019-03-23T12:34:04.673Z,100427.75
2019-03-23T12:36:56.487Z,100419.31
2019-03-23T12:39:52.496Z,100422.10
2019-03-23T12:42:38.443Z,100417.45
2019-03-23T12:45:43.548Z,100412.56
2019-03-23T12:48:27.679Z,100411.70
2019-03-23T12:51:19.219Z,100411.45
2019-03-23T12:53:58.651Z,100408.11
2019-03-23T12:56:48.942Z,100410.48
2019-03-23T12:59:47.249Z,100406.53
2019-03-23T13:02:35.922Z,100400.02
2019-03-23T13:05:31.727Z,100400.10
2019-03-23T13:08:28.969Z,100397.22
2019-03-23T13:11:35.570Z,100398.91
2019-03-23T13:15:02.369Z,100392.93
2019-03-23T13:17:16.439Z,100391.72
2019-03-23T13:20:03.615Z,100384.15
2019-03-23T13:22:48.208Z,100381.64
2019-03-23T13:25:36.969Z,100377.70
2019-03-23T13:28:18.587Z,100373.34
2019-03-23T13:31:07.531Z,100374.27
2019-03-23T13:34:00.081Z,100368.42
2019-03-23T13:36:51.579Z,100366.09
2019-03-23T13:39:38.922Z,100364.58
2019-03-23T13:42:29.217Z,100363.20
2019-03-23T13:45:21.148Z,100369.16
2019-03-23T13:48:09.600Z,100362.53
2019-03-23T13:50:56.208Z,100354.87
2019-03-23T13:53:44.862Z,100355.47
2019-03-23T13:56:30.172Z,100358.01
2019-03-23T13:59:14.287Z,100352.84
2019-03-23T14:02:00.690Z,100343.91
2019-03-23T14:04:42.792Z,100338.37
2019-03-23T14:07:24.938Z,100337.62
2019-03-23T14:10:03.103Z,100336.81
2019-03-23T14:12:47.404Z,100333.11
2019-03-23T14:15:27.766Z,100331.94
2019-03-23T14:18:03.655Z,100332.95
2019-03-23T14:20:42.231Z,100333.14
2019-03-23T14:23:26.702Z,100328.43
2019-03-23T14:26:18.333Z,100330.03
2019-03-23T14:28:54.410Z,100327.70
2019-03-23T14:31:37.211Z,100331.20
2019-03-23T14:34:21.095Z,100324.55
2019-03-23T14:37:05.105Z,100321.69
2019-03-23T14:39:47.449Z,100323.73
2019-03-23T14:42:32.418Z,100324.50
2019-03-23T14:45:14.593Z,100323.17
2019-03-23T14:47:59.797Z,100320.75
2019-03-23T14:50:48.668Z,100324.30
2019-03-23T14:53:27.865Z,100325.43
2019-03-23T14:56:13.022Z,100325.87
2019-03-23T14:58:59.650Z,100320.47
2019-03-23T15:01:48.515Z,100326.11
2019-03-23T15:04:41.801Z,100323.93
2019-03-23T15:07:20.351Z,100330.98
2019-03-23T15:10:16.729Z,100326.98
2019-03-23T15:13:04.825Z,100323.19
2019-03-23T15:15:58.029Z,100325.52
2019-03-23T15:18:50.186Z,100324.99
2019-03-23T15:21:51.233Z,100322.81
2019-03-23T15:24:38.152Z,100321.08
2019-03-23T15:27:33.568Z,100317.84
2019-03-23T15:30:10.035Z,100316.52
2019-03-23T15:33:01.770Z,100318.00
2019-03-23T15:35:51.339Z,100318.88
2019-03-23T15:38:37.663Z,100318.96
2019-03-23T15:41:22.097Z,100317.47
2019-03-23T15:43:59.694Z,100311.30
2019-03-23T15:46:49.581Z,100316.45
2019-03-23T15:49:28.484Z,100318.34
2019-03-23T15:52:17.387Z,100316.84
2019-03-23T15:55:11.754Z,100311.81
2019-03-23T15:57:58.258Z,100311.25
2019-03-23T16:00:40.147Z,100311.08
2019-03-23T16:03:20.723Z,100309.30
2019-03-23T16:06:27.902Z,100310.76
2019-03-23T16:08:58.064Z,100314.26
2019-03-23T16:11:35.525Z,100307.09
2019-03-23T16:14:14.048Z,100313.20
2019-03-23T16:16:55.610Z,100315.73
2019-03-23T16:19:35.174Z,100316.33
2019-03-23T16:22:23.174Z,100319.19
2019-03-23T16:25:15.252Z,100317.97
2019-03-23T16:27:53.562Z,100322.06
2019-03-23T16:30:36.428Z,100322.34
2019-03-23T16:33:18.903Z,100323.70
2019-03-23T16:36:00.146Z,100321.99
2019-03-23T16:38:40.945Z,100334.03
2019-03-23T16:41:37.031Z,100338.77
2019-03-23T16:44:23.024Z,100341.38
2019-03-23T16:47:12.237Z,100344.17
2019-03-23T16:49:58.126Z,100356.28
2019-03-23T16:52:41.522Z,100354.57
2019-03-23T16:55:33.969Z,100358.94
2019-03-23T16:58:16.314Z,100356.38
2019-03-23T17:01:00.427Z,100358.66
2019-03-23T17:03:58.198Z,100365.77
2019-03-23T17:06:46.095Z,100364.50
2019-03-23T17:09:13.585Z,100373.64
2019-03-23T17:11:46.545Z,100376.77
2019-03-23T17:14:19.524Z,100377.47
2019-03-23T17:16:52.556Z,100382.08
2019-03-23T17:19:25.602Z,100383.23
2019-03-23T17:21:58.640Z,100382.09
2019-03-23T17:24:31.623Z,100386.83
2019-03-23T17:27:04.642Z,100386.31
2019-03-23T17:29:37.638Z,100389.58
2019-03-23T17:32:10.701Z,100387.51
2019-03-23T17:34:43.681Z,100393.14
2019-03-23T17:37:16.634Z,100397.38
2019-03-23T17:39:49.613Z,100403.19
2019-03-23T17:42:22.560Z,100403.03
2019-03-23T17:44:55.541Z,100396.98
2019-03-23T17:47:28.527Z,100405.46
2019-03-23T17:50:01.610Z,100406.37
2019-03-23T17:52:34.609Z,100413.34
2019-03-23T17:55:07.817Z,100418.28
2019-03-23T17:57:40.777Z,100414.25
2019-03-23T18:00:14.052Z,100419.21
2019-03-23T18:02:47.092Z,100420.98
2019-03-23T18:05:20.066Z,100422.86
2019-03-23T18:07:53.141Z,100428.36
2019-03-23T18:10:28.195Z,100433.55
2019-03-23T18:13:00.899Z,100437.83
2019-03-23T18:15:33.965Z,100439.02
2019-03-23T18:18:06.950Z,100445.48
2019-03-23T18:20:39.923Z,100442.97
2019-03-23T18:23:12.877Z,100446.55
2019-03-23T18:25:45.874Z,100449.48
2019-03-23T18:28:19.006Z,100454.09
2019-03-23T18:30:51.991Z,100454.25
2019-03-23T18:33:24.954Z,100460.62
2019-03-23T18:35:57.937Z,100462.27
2019-03-23T18:38:30.966Z,100464.19
2019-03-23T18:41:03.953Z,100460.16
2019-03-23T18:43:40.369Z,100463.35
2019-03-23T18:46:13.417Z,100474.05
2019-03-23T18:48:46.578Z,100474.98
2019-03-23T18:51:19.679Z,100480.14
2019-03-23T18:53:52.646Z,100478.98
2019-03-23T18:56:25.893Z,100487.69
2019-03-23T18:58:59.153Z,100488.04
2019-03-23T19:01:32.132Z,100487.69
2019-03-23T19:04:05.210Z,100487.76
2019-03-23T19:06:38.335Z,100487.98
2019-03-23T19:09:12.794Z,100486.34
2019-03-23T19:11:46.034Z,100485.49
2019-03-23T19:14:19.111Z,100487.83
2019-03-23T19:16:52.225Z,100484.63
2019-03-23T19:19:25.348Z,100490.80
2019-03-23T19:21:58.571Z,100493.88
2019-03-23T19:24:31.643Z,100489.56
2019-03-23T19:27:04.871Z,100494.95
2019-03-23T19:29:38.013Z,100490.38
2019-03-23T19:32:11.179Z,100494.75
2019-03-23T19:34:44.187Z,100492.61
2019-03-23T19:37:17.198Z,100487.84
2019-03-23T19:39:50.218Z,100496.98
2019-03-23T19:42:23.207Z,100491.67
2019-03-23T19:44:56.409Z,100492.30
2019-03-23T19:47:29.379Z,100493.74
2019-03-23T19:50:02.614Z,100492.95
2019-03-23T19:52:36.820Z,100497.16
2019-03-23T19:55:10.212Z,100492.11
2019-03-23T19:57:43.379Z,100494.95
2019-03-23T20:00:16.529Z,100497.50
2019-03-23T20:02:49.675Z,100494.87
2019-03-23T20:05:22.791Z,100492.72
2019-03-23T20:07:55.820Z,100492.81
2019-03-23T20:10:28.789Z,100489.00
2019-03-23T20:13:01.936Z,100495.98
2019-03-23T20:15:35.012Z,100497.05
2019-03-23T20:18:08.190Z,100500.28
2019-03-23T20:20:41.187Z,100496.95
2019-03-23T20:23:14.378Z,100497.27
2019-03-23T20:25:47.704Z,100494.41
2019-03-23T20:28:20.752Z,100486.55
2019-03-23T20:30:54.968Z,100492.49
2019-03-23T20:33:28.024Z,100490.70
2019-03-23T20:36:01.005Z,100495.84
2019-03-23T20:38:34.215Z,100495.34
2019-03-23T20:41:07.448Z,100493.80
2019-03-23T20:43:40.495Z,100493.16
2019-03-23T20:46:13.677Z,100493.63
2019-03-23T20:48:47.118Z,100492.24
2019-03-23T20:51:21.608Z,100494.09
2019-03-23T20:53:54.660Z,100492.13
2019-03-23T20:56:27.794Z,100495.63
2019-03-23T20:59:00.775Z,100495.72
2019-03-23T21:01:33.880Z,100498.29
2019-03-23T21:04:06.879Z,100494.53
2019-03-23T21:06:39.846Z,100490.83
2019-03-23T21:09:12.824Z,100492.16
2019-03-23T21:11:45.854Z,100485.70
2019-03-23T21:14:20.438Z,100481.27
2019-03-23T21:16:53.702Z,100477.80
2019-03-23T21:19:26.813Z,100475.56
2019-03-23T21:21:59.820Z,100475.52
2019-03-23T21:24:32.842Z,100471.89
2019-03-23T21:27:05.831Z,100473.30
2019-03-23T21:29:41.158Z,100473.66
2019-03-23T21:32:13.600Z,100470.48
2019-03-23T21:34:46.570Z,100471.63
2019-03-23T21:37:19.548Z,100472.66
2019-03-23T21:39:52.659Z,100470.78
2019-03-23T21:42:25.624Z,100477.25
2019-03-23T21:44:58.608Z,100473.67
2019-03-23T21:47:31.574Z,100473.65
2019-03-23T21:50:04.832Z,100469.27
2019-03-23T21:52:37.787Z,100465.73
2019-03-23T21:55:10.850Z,100464.22
2019-03-23T21:57:43.922Z,100458.19
2019-03-23T22:00:45.764Z,100461.95
2019-03-23T22:03:18.897Z,100456.32
2019-03-23T22:05:51.970Z,100460.09
2019-03-23T22:08:24.951Z,100462.52
2019-03-23T22:10:57.907Z,100460.11
2019-03-23T22:13:30.887Z,100450.56
2019-03-23T22:16:05.278Z,100453.30
2019-03-23T22:18:38.604Z,100450.65
2019-03-23T22:21:11.553Z,100445.71
2019-03-23T22:23:44.522Z,100449.23
2019-03-23T22:26:17.481Z,100448.30
2019-03-23T22:28:50.736Z,100443.08
2019-03-23T22:31:23.789Z,100441.89
2019-03-23T22:33:56.778Z,100440.05
2019-03-23T22:36:29.749Z,100441.86
2019-03-23T22:39:02.820Z,100443.16
2019-03-23T22:41:36.047Z,100441.94
2019-03-23T22:44:09.028Z,100439.85
2019-03-23T22:46:42.008Z,100436.18
2019-03-23T22:49:15.277Z,100435.25
2019-03-23T22:51:49.256Z,100436.48
2019-03-23T22:54:22.303Z,100422.31
2019-03-23T22:56:55.250Z,100419.18
2019-03-23T22:59:28.233Z,100412.48
2019-03-23T23:02:01.208Z,100411.87
2019-03-23T23:04:34.209Z,100412.20
2019-03-23T23:07:07.159Z,100409.83
2019-03-23T23:09:40.151Z,100405.59
2019-03-23T23:12:13.116Z,100404.95
2019-03-23T23:14:47.974Z,100402.02
2019-03-23T23:17:20.948Z,100398.11
2019-03-23T23:19:53.982Z,100400.53
2019-03-23T23:22:26.985Z,100399.44
2019-03-23T23:24:59.960Z,100395.83
2019-03-23T23:27:32.999Z,100395.14
2019-03-23T23:30:07.692Z,100397.78
2019-03-23T23:32:40.797Z,100399.95
2019-03-23T23:35:13.863Z,100398.83
2019-03-23T23:37:46.837Z,100394.34
2019-03-23T23:40:19.803Z,100393.95
2019-03-23T23:42:52.796Z,100393.85
2019-03-23T23:45:25.870Z,100393.42
2019-03-23T23:47:59.931Z,100391.71
2019-03-23T23:50:34.045Z,100390.44
2019-03-23T23:53:07.047Z,100386.27
2019-03-23T23:55:40.064Z,100388.48
2019-03-23T23:58:13.050Z,100386.79
